createdAt,value
2018-08-18T00:00:28.083Z,101886.44
2018-08-18T00:03:52.517Z,101887.42
2018-08-18T00:07:17.212Z,101889.35
2018-08-18T00:10:41.855Z,101891.18
2018-08-18T00:14:07.356Z,101892.44
2018-08-18T00:17:31.824Z,101890.73
2018-08-18T00:20:56.279Z,101892.80
2018-08-18T00:24:21.783Z,101890.30
2018-08-18T00:27:46.306Z,101893.31
2018-08-18T00:31:10.721Z,101888.56
2018-08-18T00:34:40.125Z,101892.62
2018-08-18T00:38:04.629Z,101889.50
2018-08-18T00:41:31.017Z,101891.59
2018-08-18T00:44:55.641Z,101896.22
2018-08-18T00:48:20.068Z,101897.33
2018-08-18T00:51:45.093Z,101896.11
2018-08-18T00:55:09.787Z,101904.58
2018-08-18T00:58:34.309Z,101895.74
2018-08-18T01:01:58.995Z,101901.42
2018-08-18T01:05:23.603Z,101899.90
2018-08-18T01:08:48.830Z,101908.11
2018-08-18T01:12:13.692Z,101911.98
2018-08-18T01:15:38.707Z,101911.11
2018-08-18T01:19:03.100Z,101913.34
2018-08-18T01:22:27.535Z,101914.09
2018-08-18T01:25:51.971Z,101918.92
2018-08-18T01:29:17.833Z,101924.44
2018-08-18T01:32:42.239Z,101915.82
2018-08-18T01:36:06.844Z,101919.48
2018-08-18T01:39:31.269Z,101923.81
2018-08-18T01:42:55.711Z,101926.81
2018-08-18T01:46:20.179Z,101930.75
2018-08-18T01:49:44.619Z,101931.86
2018-08-18T01:53:09.039Z,101934.25
2018-08-18T01:56:33.418Z,101936.94
2018-08-18T01:59:57.877Z,101931.41
2018-08-18T02:03:22.308Z,101929.05
2018-08-18T02:06:46.767Z,101926.95
2018-08-18T02:10:11.186Z,101923.92
2018-08-18T02:13:35.606Z,101920.95
2018-08-18T02:17:30.562Z,101922.14
2018-08-18T02:20:54.972Z,101920.39
2018-08-18T02:24:19.381Z,101923.11
2018-08-18T02:27:43.751Z,101926.91
2018-08-18T02:31:08.184Z,101921.18
2018-08-18T02:34:32.584Z,101925.55
2018-08-18T02:37:56.984Z,101926.30
2018-08-18T02:41:21.393Z,101917.03
2018-08-18T02:44:45.839Z,101919.58
2018-08-18T02:48:16.345Z,101918.77
2018-08-18T02:51:40.760Z,101920.03
2018-08-18T02:55:07.595Z,101921.19
2018-08-18T02:58:32.006Z,101924.11
2018-08-18T03:01:56.424Z,101919.76
2018-08-18T03:05:20.870Z,101930.48
2018-08-18T03:08:45.283Z,101934.83
2018-08-18T03:12:10.024Z,101932.38
2018-08-18T03:15:57.943Z,101940.55
2018-08-18T03:19:22.399Z,101942.44
2018-08-18T03:22:47.656Z,101939.17
2018-08-18T03:26:12.096Z,101945.64
2018-08-18T03:29:42.551Z,101945.05
2018-08-18T03:33:07.100Z,101938.56
2018-08-18T03:36:36.133Z,101945.97
2018-08-18T03:40:00.585Z,101948.80
2018-08-18T03:43:25.029Z,101945.64
2018-08-18T03:46:49.477Z,101953.30
2018-08-18T03:50:13.916Z,101951.66
2018-08-18T03:53:38.340Z,101948.91
2018-08-18T03:57:02.763Z,101953.79
2018-08-18T04:00:27.180Z,101948.16
2018-08-18T04:03:51.603Z,101959.69
2018-08-18T04:07:16.065Z,101953.48
2018-08-18T04:10:40.515Z,101953.20
2018-08-18T04:14:04.945Z,101963.70
2018-08-18T04:17:31.526Z,101965.54
2018-08-18T04:20:55.896Z,101961.25
2018-08-18T04:24:20.368Z,101963.45
2018-08-18T04:27:48.101Z,101966.95
2018-08-18T04:31:12.697Z,101960.83
2018-08-18T04:34:37.121Z,101969.70
2018-08-18T04:38:04.274Z,101966.22
2018-08-18T04:41:28.863Z,101970.70
2018-08-18T04:44:53.245Z,101969.56
2018-08-18T04:48:30.793Z,101971.59
2018-08-18T04:51:55.220Z,101971.84
2018-08-18T04:55:19.838Z,101968.70
2018-08-18T04:58:44.229Z,101966.59
2018-08-18T05:02:08.647Z,101975.42
2018-08-18T05:05:33.205Z,101978.20
2018-08-18T05:08:59.069Z,101975.51
2018-08-18T05:12:23.509Z,101971.56
2018-08-18T05:15:47.921Z,101975.11
2018-08-18T05:19:12.356Z,101979.37
2018-08-18T05:22:36.737Z,101980.06
2018-08-18T05:26:01.174Z,101984.59
2018-08-18T05:29:25.576Z,101991.00
2018-08-18T05:32:50.004Z,101989.48
2018-08-18T05:36:14.443Z,101994.53
2018-08-18T05:39:38.848Z,101995.44
2018-08-18T05:43:03.907Z,101996.69
2018-08-18T05:46:28.399Z,102000.45
2018-08-18T05:49:54.835Z,102005.31
2018-08-18T05:53:24.283Z,102013.66
2018-08-18T05:56:48.752Z,102011.86
2018-08-18T06:00:18.323Z,102007.02
2018-08-18T06:03:42.805Z,102012.16
2018-08-18T06:07:07.263Z,102010.57
2018-08-18T06:10:31.702Z,102007.60
2018-08-18T06:13:56.123Z,102017.31
2018-08-18T06:17:25.697Z,102023.55
2018-08-18T06:20:50.129Z,102022.31
2018-08-18T06:24:14.572Z,102019.66
2018-08-18T06:27:39.021Z,102027.91
2018-08-18T06:31:03.633Z,102015.09
2018-08-18T06:34:30.773Z,102017.08
2018-08-18T06:38:01.766Z,102017.34
2018-08-18T06:41:26.311Z,102021.45
2018-08-18T06:44:50.657Z,102023.06
2018-08-18T06:48:20.768Z,102020.59
2018-08-18T06:51:45.275Z,102017.38
2018-08-18T06:55:14.754Z,102024.84
2018-08-18T06:58:39.091Z,102027.45
2018-08-18T07:02:03.550Z,102023.31
2018-08-18T07:05:28.017Z,102024.20
2018-08-18T07:08:53.834Z,102022.35
2018-08-18T07:12:18.262Z,102025.05
2018-08-18T07:15:44.219Z,102017.55
2018-08-18T07:19:08.699Z,102026.71
2018-08-18T07:22:33.086Z,102024.79
2018-08-18T07:25:59.613Z,102022.30
2018-08-18T07:29:24.075Z,102031.24
2018-08-18T07:32:48.454Z,102034.44
2018-08-18T07:36:12.876Z,102034.20
2018-08-18T07:39:37.318Z,102035.66
2018-08-18T07:43:06.231Z,102047.09
2018-08-18T07:46:30.759Z,102053.80
2018-08-18T07:49:55.044Z,102043.90
2018-08-18T07:53:19.611Z,102046.87
2018-08-18T07:56:43.890Z,102042.19
2018-08-18T08:00:08.496Z,102045.06
2018-08-18T08:03:33.084Z,102040.37
2018-08-18T08:06:57.555Z,102043.39
2018-08-18T08:10:21.994Z,102040.58
2018-08-18T08:13:46.437Z,102040.27
2018-08-18T08:17:11.770Z,102039.75
2018-08-18T08:20:36.156Z,102046.03
2018-08-18T08:24:00.656Z,102052.23
2018-08-18T08:27:25.076Z,102045.85
2018-08-18T08:30:49.500Z,102045.49
2018-08-18T08:34:13.946Z,102047.95
2018-08-18T08:37:38.390Z,102052.05
2018-08-18T08:41:02.842Z,102052.46
2018-08-18T08:44:27.242Z,102056.16
2018-08-18T08:47:51.751Z,102054.89
2018-08-18T08:51:16.201Z,102058.92
2018-08-18T08:54:41.214Z,102054.31
2018-08-18T08:58:05.731Z,102058.64
2018-08-18T09:01:30.134Z,102054.91
2018-08-18T09:04:54.575Z,102058.02
2018-08-18T09:08:18.974Z,102063.47
2018-08-18T09:11:43.380Z,102061.80
2018-08-18T09:15:09.620Z,102063.53
2018-08-18T09:18:34.051Z,102052.81
2018-08-18T09:22:01.767Z,102059.03
2018-08-18T09:25:29.410Z,102053.13
2018-08-18T09:28:53.842Z,102052.60
2018-08-18T09:32:19.107Z,102049.20
2018-08-18T09:36:03.628Z,102062.88
2018-08-18T09:39:32.105Z,102050.61
2018-08-18T09:42:56.732Z,102043.21
2018-08-18T09:46:21.311Z,102050.70
2018-08-18T09:49:45.763Z,102046.34
2018-08-18T09:53:10.174Z,102051.02
2018-08-18T09:56:34.599Z,102048.56
2018-08-18T09:59:59.061Z,102045.55
2018-08-18T10:03:23.460Z,102043.98
2018-08-18T10:06:47.861Z,102046.63
2018-08-18T10:10:13.959Z,102041.52
2018-08-18T10:13:38.383Z,102044.38
2018-08-18T10:17:02.997Z,102040.30
2018-08-18T10:20:27.523Z,102040.56
2018-08-18T10:23:52.016Z,102028.39
2018-08-18T10:27:18.859Z,102023.25
2018-08-18T10:30:43.277Z,102026.01
2018-08-18T10:34:07.758Z,102025.06
2018-08-18T10:37:32.169Z,102017.84
2018-08-18T10:40:56.586Z,102013.09
2018-08-18T10:44:21.018Z,102021.03
2018-08-18T10:47:45.418Z,102023.09
2018-08-18T10:52:23.878Z,102020.49
2018-08-18T10:55:48.304Z,102004.34
2018-08-18T10:59:20.631Z,102013.97
2018-08-18T11:02:47.148Z,102012.03
2018-08-18T11:06:11.650Z,102013.27
2018-08-18T11:09:36.074Z,102013.25
2018-08-18T11:13:00.581Z,102012.47
2018-08-18T11:16:25.050Z,102012.73
2018-08-18T11:19:49.458Z,102021.15
2018-08-18T11:23:15.147Z,102018.06
2018-08-18T11:26:40.989Z,102021.02
2018-08-18T11:30:05.467Z,102012.25
2018-08-18T11:33:39.233Z,102011.88
2018-08-18T11:37:06.964Z,102020.50
2018-08-18T11:40:31.404Z,102008.52
2018-08-18T11:43:55.809Z,102010.06
2018-08-18T11:47:20.282Z,102007.75
2018-08-18T11:50:45.120Z,102000.45
2018-08-18T11:54:09.618Z,101996.56
2018-08-18T11:57:33.982Z,101994.33
2018-08-18T12:00:59.790Z,101993.17
2018-08-18T12:04:24.581Z,101985.00
2018-08-18T12:07:51.991Z,101983.66
2018-08-18T12:11:16.474Z,101977.41
2018-08-18T12:14:40.886Z,101970.72
2018-08-18T12:18:05.345Z,101982.51
2018-08-18T12:21:34.031Z,101974.20
2018-08-18T12:25:00.871Z,101977.50
2018-08-18T12:28:48.918Z,101974.30
2018-08-18T12:32:18.312Z,101969.59
2018-08-18T12:35:42.919Z,101967.34
2018-08-18T12:39:07.852Z,101956.48
2018-08-18T12:42:32.314Z,101961.28
2018-08-18T12:45:57.638Z,101967.03
2018-08-18T12:49:22.080Z,101956.16
2018-08-18T12:52:49.544Z,101953.46
2018-08-18T12:56:17.376Z,101941.63
2018-08-18T12:59:41.767Z,101947.25
2018-08-18T13:03:06.169Z,101933.90
2018-08-18T13:06:34.653Z,101928.97
2018-08-18T13:10:17.969Z,101940.91
2018-08-18T13:13:42.468Z,101937.58
2018-08-18T13:17:07.029Z,101935.73
2018-08-18T13:20:31.584Z,101932.92
2018-08-18T13:23:56.048Z,101929.77
2018-08-18T13:27:20.463Z,101925.79
2018-08-18T13:30:44.985Z,101921.75
2018-08-18T13:34:12.194Z,101920.19
2018-08-18T13:37:36.687Z,101912.77
2018-08-18T13:41:01.202Z,101913.68
2018-08-18T13:44:30.858Z,101904.01
2018-08-18T13:47:59.338Z,101911.61
2018-08-18T13:51:24.185Z,101914.13
2018-08-18T13:54:53.326Z,101905.16
2018-08-18T13:58:17.820Z,101900.36
2018-08-18T14:01:45.678Z,101898.14
2018-08-18T14:05:20.939Z,101896.59
2018-08-18T14:08:47.219Z,101894.34
2018-08-18T14:12:15.478Z,101887.09
2018-08-18T14:15:40.333Z,101892.09
2018-08-18T14:19:04.736Z,101886.20
2018-08-18T14:22:29.177Z,101895.20
2018-08-18T14:25:53.751Z,101891.59
2018-08-18T14:29:18.421Z,101885.45
2018-08-18T14:32:42.876Z,101878.00
2018-08-18T14:36:13.464Z,101887.48
2018-08-18T14:39:40.764Z,101892.27
2018-08-18T14:43:05.248Z,101888.64
2018-08-18T14:46:29.743Z,101887.47
2018-08-18T14:50:14.849Z,101888.72
2018-08-18T14:53:43.284Z,101880.30
2018-08-18T14:57:07.900Z,101878.39
2018-08-18T15:00:32.800Z,101880.58
2018-08-18T15:03:57.367Z,101868.95
2018-08-18T15:07:21.773Z,101883.30
2018-08-18T15:10:46.948Z,101877.14
2018-08-18T15:14:11.526Z,101884.55
2018-08-18T15:17:35.975Z,101873.87
2018-08-18T15:21:00.477Z,101874.35
2018-08-18T15:24:25.588Z,101885.31
2018-08-18T15:27:50.043Z,101881.56
2018-08-18T15:31:14.533Z,101874.16
2018-08-18T15:34:38.985Z,101862.09
2018-08-18T15:38:03.484Z,101869.03
2018-08-18T15:41:27.868Z,101869.50
2018-08-18T15:45:01.247Z,101872.00
2018-08-18T15:48:26.059Z,101867.19
2018-08-18T15:51:50.544Z,101876.48
2018-08-18T15:55:14.952Z,101865.14
2018-08-18T15:58:39.485Z,101864.26
2018-08-18T16:02:03.940Z,101866.48
2018-08-18T16:05:29.112Z,101864.16
2018-08-18T16:08:54.269Z,101858.36
2018-08-18T16:12:18.837Z,101858.89
2018-08-18T16:15:43.344Z,101861.52
2018-08-18T16:19:13.276Z,101857.48
2018-08-18T16:22:37.731Z,101853.52
2018-08-18T16:26:02.188Z,101857.05
2018-08-18T16:29:26.633Z,101853.30
2018-08-18T16:33:08.092Z,101853.40
2018-08-18T16:36:37.697Z,101857.34
2018-08-18T16:40:02.128Z,101860.03
2018-08-18T16:43:26.587Z,101862.98
2018-08-18T16:46:51.028Z,101859.40
2018-08-18T16:50:15.560Z,101859.53
2018-08-18T16:53:39.986Z,101859.18
2018-08-18T16:57:04.364Z,101860.34
2018-08-18T17:00:28.936Z,101861.34
2018-08-18T17:03:53.542Z,101861.95
2018-08-18T17:07:23.093Z,101871.00
2018-08-18T17:10:47.588Z,101867.58
2018-08-18T17:14:17.007Z,101871.42
2018-08-18T17:17:41.473Z,101872.91
2018-08-18T17:21:07.000Z,101870.74
2018-08-18T17:24:31.731Z,101879.12
2018-08-18T17:27:56.326Z,101880.45
2018-08-18T17:31:20.780Z,101877.56
2018-08-18T17:34:45.227Z,101884.41
2018-08-18T17:38:09.750Z,101881.82
2018-08-18T17:41:34.180Z,101889.75
2018-08-18T17:44:59.992Z,101894.48
2018-08-18T17:48:26.353Z,101895.36
2018-08-18T17:52:22.086Z,101897.64
2018-08-18T17:55:52.779Z,101905.56
2018-08-18T17:59:17.895Z,101900.70
2018-08-18T18:02:47.583Z,101895.39
2018-08-18T18:06:13.092Z,101889.39
2018-08-18T18:09:37.886Z,101896.02
2018-08-18T18:13:05.632Z,101902.70
2018-08-18T18:16:30.459Z,101896.45
2018-08-18T18:19:57.492Z,101902.36
2018-08-18T18:23:22.877Z,101904.51
2018-08-18T18:26:50.490Z,101911.08
2018-08-18T18:30:15.031Z,101912.48
2018-08-18T18:33:39.798Z,101916.98
2018-08-18T18:37:05.002Z,101915.78
2018-08-18T18:40:33.833Z,101917.81
2018-08-18T18:44:01.867Z,101919.73
2018-08-18T18:47:26.436Z,101923.98
2018-08-18T18:50:50.881Z,101936.13
2018-08-18T18:54:15.352Z,101937.45
2018-08-18T18:57:46.494Z,101938.05
2018-08-18T19:01:11.003Z,101941.98
2018-08-18T19:04:35.461Z,101944.05
2018-08-18T19:08:12.951Z,101952.63
2018-08-18T19:11:37.549Z,101957.20
2018-08-18T19:15:01.995Z,101954.85
2018-08-18T19:18:26.449Z,101962.13
2018-08-18T19:21:51.298Z,101963.89
2018-08-18T19:25:15.783Z,101962.97
2018-08-18T19:28:40.346Z,101967.05
2018-08-18T19:32:04.779Z,101967.75
2018-08-18T19:35:34.254Z,101970.62
2018-08-18T19:38:58.647Z,101972.68
2018-08-18T19:42:23.088Z,101968.10
2018-08-18T19:45:47.720Z,101973.88
2018-08-18T19:49:12.247Z,101974.22
2018-08-18T19:52:36.705Z,101971.34
2018-08-18T19:56:02.032Z,101963.61
2018-08-18T19:59:26.422Z,101969.22
2018-08-18T20:03:12.645Z,101959.39
2018-08-18T20:06:37.113Z,101961.40
2018-08-18T20:10:01.666Z,101963.97
2018-08-18T20:13:27.698Z,101965.78
2018-08-18T20:16:52.189Z,101971.20
2018-08-18T20:20:21.562Z,101966.55
2018-08-18T20:23:46.061Z,101971.56
2018-08-18T20:27:10.630Z,101972.14
2018-08-18T20:30:35.063Z,101967.34
2018-08-18T20:33:59.516Z,101967.30
2018-08-18T20:37:23.942Z,101968.84
2018-08-18T20:40:48.391Z,101965.73
2018-08-18T20:44:12.836Z,101957.80
2018-08-18T20:47:37.376Z,101960.27
2018-08-18T20:51:01.854Z,101964.40
2018-08-18T20:54:26.316Z,101964.48
2018-08-18T20:57:50.747Z,101964.05
2018-08-18T21:01:15.173Z,101959.50
2018-08-18T21:04:41.619Z,101968.87
2018-08-18T21:08:11.416Z,101974.05
2018-08-18T21:11:35.858Z,101980.10
2018-08-18T21:15:00.267Z,101984.58
2018-08-18T21:18:24.676Z,101988.19
2018-08-18T21:21:49.139Z,101986.81
2018-08-18T21:25:14.362Z,101991.79
2018-08-18T21:28:38.973Z,101989.50
2018-08-18T21:32:03.383Z,101988.91
2018-08-18T21:35:27.812Z,101983.66
2018-08-18T21:38:52.375Z,101983.28
2018-08-18T21:42:16.838Z,101987.06
2018-08-18T21:49:33.283Z,101990.52
2018-08-18T21:52:57.736Z,101987.46
2018-08-18T21:56:22.150Z,101990.28
2018-08-18T21:59:55.966Z,101997.45
2018-08-18T22:03:20.392Z,101996.37
2018-08-18T22:06:44.814Z,102004.02
2018-08-18T22:10:10.751Z,102004.45
2018-08-18T22:13:42.961Z,102009.71
2018-08-18T22:17:07.638Z,102013.28
2018-08-18T22:20:32.185Z,102016.48
2018-08-18T22:23:58.643Z,102016.39
2018-08-18T22:27:23.086Z,102030.07
2018-08-18T22:30:47.538Z,102021.48
2018-08-18T22:34:11.976Z,102021.94
2018-08-18T22:37:36.420Z,102025.73
2018-08-18T22:41:00.885Z,102030.52
2018-08-18T22:44:25.414Z,102027.91
2018-08-18T22:47:49.914Z,102030.37
2018-08-18T22:51:14.334Z,102031.09
2018-08-18T22:54:38.754Z,102028.27
2018-08-18T22:58:03.265Z,102029.36
2018-08-18T23:01:27.648Z,102025.90
2018-08-18T23:04:52.059Z,102025.86
2018-08-18T23:08:17.765Z,102023.46
2018-08-18T23:11:42.175Z,102023.20
2018-08-18T23:15:07.077Z,102025.30
2018-08-18T23:18:31.516Z,102028.95
2018-08-18T23:21:55.938Z,102027.75
2018-08-18T23:25:20.390Z,102030.96
2018-08-18T23:28:45.154Z,102027.66
2018-08-18T23:32:16.364Z,102030.11
2018-08-18T23:35:40.834Z,102027.95
2018-08-18T23:39:06.521Z,102020.22
2018-08-18T23:42:30.942Z,102024.41
2018-08-18T23:45:55.511Z,102020.00
2018-08-18T23:49:19.935Z,102017.99
2018-08-18T23:52:56.671Z,102011.75
2018-08-18T23:56:21.208Z,102012.55
2018-08-18T23:59:46.192Z,102005.12
